Aviation Digital Data Service (ADDS)

Output produced by METARs form (0607 UTC 29 March 2015)
found at http://aviationweather.gov/adds/metars/
 
KEKN 290520Z 2906/3006 00000KT P6SM SKC 
     FM292000 24007KT P6SM SCT250 
     FM300000 18005KT P6SM BKN150 
     FM300500 23009KT 6SM -SHRA BR BKN020